createdAt,value
2022-11-27T00:01:42.533Z,101146.44
2022-11-27T00:04:14.830Z,101128.94
2022-11-27T00:06:43.516Z,101143.72
2022-11-27T00:09:16.013Z,101162.00
2022-11-27T00:11:45.074Z,101174.91
2022-11-27T00:14:14.601Z,101187.91
2022-11-27T00:16:42.859Z,101188.69
2022-11-27T00:19:11.701Z,101189.38
2022-11-27T00:21:40.065Z,101182.28
2022-11-27T00:24:09.264Z,101183.97
2022-11-27T00:26:38.895Z,101164.72
2022-11-27T00:29:07.797Z,101161.34
2022-11-27T00:31:37.711Z,101149.25
2022-11-27T00:34:09.111Z,101156.97
2022-11-27T00:36:38.022Z,101188.38
2022-11-27T00:39:06.400Z,101183.28
2022-11-27T00:41:34.595Z,101173.72
2022-11-27T00:44:04.144Z,101189.53
2022-11-27T00:46:33.971Z,101180.94
2022-11-27T00:49:04.937Z,101165.28
2022-11-27T00:51:33.033Z,101161.81
2022-11-27T00:54:01.049Z,101167.91
2022-11-27T00:56:32.536Z,101154.81
2022-11-27T00:59:24.633Z,101168.75
2022-11-27T01:01:51.957Z,101200.16
2022-11-27T01:04:20.227Z,101198.41
2022-11-27T01:06:48.279Z,101206.25
2022-11-27T01:09:17.399Z,101201.00
2022-11-27T01:11:45.503Z,101202.72
2022-11-27T01:14:16.295Z,101214.00
2022-11-27T01:16:44.551Z,101221.84
2022-11-27T01:19:15.357Z,101223.66
2022-11-27T01:21:43.826Z,101213.19
2022-11-27T01:24:14.559Z,101206.25
2022-11-27T01:26:42.897Z,101209.63
2022-11-27T01:29:11.393Z,101207.00
2022-11-27T01:31:39.520Z,101202.63
2022-11-27T01:34:09.267Z,101195.69
2022-11-27T01:36:38.878Z,101202.72
2022-11-27T01:39:06.922Z,101210.63
2022-11-27T01:41:36.895Z,101207.16
2022-11-27T01:44:25.982Z,101212.47
2022-11-27T01:46:56.509Z,101208.38
2022-11-27T01:49:32.302Z,101225.94
2022-11-27T01:52:10.344Z,101222.69
2022-11-27T01:54:43.382Z,101253.41
2022-11-27T01:57:16.787Z,101288.44
2022-11-27T01:59:46.792Z,101334.56
2022-11-27T02:02:15.119Z,101386.13
2022-11-27T02:04:43.709Z,101448.91
2022-11-27T02:07:13.358Z,101533.41
2022-11-27T02:09:41.845Z,101577.09
2022-11-27T02:12:16.885Z,101643.50
2022-11-27T02:14:55.977Z,101761.31
2022-11-27T02:17:31.421Z,101865.94
2022-11-27T02:20:14.694Z,101975.88
2022-11-27T02:23:00.197Z,102072.06
2022-11-27T02:25:35.789Z,102173.38
2022-11-27T02:28:23.880Z,102313.91
2022-11-27T02:30:58.120Z,102432.56
2022-11-27T02:33:27.070Z,102499.75
2022-11-27T02:36:03.510Z,102558.22
2022-11-27T02:38:38.919Z,102593.91
2022-11-27T02:41:10.852Z,102633.16
2022-11-27T02:43:42.096Z,102657.59
2022-11-27T02:46:14.188Z,102683.84
2022-11-27T02:48:46.977Z,102696.13
2022-11-27T02:51:17.196Z,102706.56
2022-11-27T02:53:50.249Z,102724.88
2022-11-27T02:56:22.313Z,102724.84
2022-11-27T02:58:52.433Z,102722.16
2022-11-27T03:01:24.311Z,102732.63
2022-11-27T03:03:56.721Z,102733.53
2022-11-27T03:06:30.661Z,102730.94
2022-11-27T03:09:04.107Z,102737.03
2022-11-27T03:11:32.224Z,102757.09
2022-11-27T03:14:03.432Z,102741.38
2022-11-27T03:16:40.418Z,102737.03
2022-11-27T03:19:17.267Z,102743.06
2022-11-27T03:21:48.894Z,102730.84
2022-11-27T03:24:17.148Z,102724.69
2022-11-27T03:26:45.575Z,102723.81
2022-11-27T03:29:18.032Z,102719.44
2022-11-27T03:31:47.667Z,102728.16
2022-11-27T03:34:16.658Z,102735.13
2022-11-27T03:36:44.815Z,102728.16
2022-11-27T03:39:13.075Z,102719.44
2022-11-27T03:41:47.241Z,102715.16
2022-11-27T03:44:27.361Z,102710.00
2022-11-27T03:47:09.026Z,102710.88
2022-11-27T03:49:48.016Z,102703.13
2022-11-27T03:52:25.712Z,102700.56
2022-11-27T03:55:01.289Z,102693.66
2022-11-27T03:57:35.163Z,102689.38
2022-11-27T04:00:06.266Z,102685.06
2022-11-27T04:02:42.827Z,102683.41
2022-11-27T04:05:11.835Z,102676.47
2022-11-27T04:07:40.505Z,102679.19
2022-11-27T04:10:10.630Z,102685.34
2022-11-27T04:12:40.805Z,102676.66
2022-11-27T04:15:09.794Z,102672.38
2022-11-27T04:17:38.011Z,102675.03
2022-11-27T04:20:09.011Z,102662.00
2022-11-27T04:22:37.043Z,102659.47
2022-11-27T04:25:05.710Z,102668.22
2022-11-27T04:27:33.888Z,102664.75
2022-11-27T04:30:01.871Z,102653.41
2022-11-27T04:32:29.933Z,102641.28
2022-11-27T04:34:57.963Z,102635.16
2022-11-27T04:37:27.414Z,102639.56
2022-11-27T04:39:55.392Z,102643.03
2022-11-27T04:42:23.369Z,102635.25
2022-11-27T04:44:51.473Z,102615.19
2022-11-27T04:47:19.604Z,102619.56
2022-11-27T04:49:47.719Z,102608.25
2022-11-27T04:52:16.024Z,102600.41
2022-11-27T04:54:45.403Z,102596.06
2022-11-27T04:57:13.560Z,102606.53
2022-11-27T04:59:41.569Z,102606.53
2022-11-27T05:02:09.641Z,102631.81
2022-11-27T05:04:37.888Z,102622.19
2022-11-27T05:07:17.653Z,102609.09
2022-11-27T05:09:47.181Z,102607.34
2022-11-27T05:12:15.272Z,102599.53
2022-11-27T05:14:43.382Z,102607.38
2022-11-27T05:17:11.599Z,102616.16
2022-11-27T05:19:39.758Z,102617.09
2022-11-27T05:22:07.795Z,102626.69
2022-11-27T05:24:35.723Z,102636.34
2022-11-27T05:27:05.428Z,102639.00
2022-11-27T05:29:33.485Z,102639.84
2022-11-27T05:32:01.524Z,102645.06
2022-11-27T05:34:29.532Z,102651.16
2022-11-27T05:36:57.525Z,102640.75
2022-11-27T05:39:25.583Z,102643.38
2022-11-27T05:41:53.640Z,102640.81
2022-11-27T05:44:23.358Z,102635.53
2022-11-27T05:46:51.394Z,102632.94
2022-11-27T05:49:19.499Z,102626.84
2022-11-27T05:51:51.407Z,102613.88
2022-11-27T05:54:20.351Z,102608.72
2022-11-27T05:56:48.526Z,102601.84
2022-11-27T05:59:16.599Z,102602.78
2022-11-27T06:01:46.432Z,102614.97
2022-11-27T06:04:14.699Z,102629.81
2022-11-27T06:06:42.855Z,102625.50
2022-11-27T06:09:13.138Z,102615.13
2022-11-27T06:11:42.280Z,102637.81
2022-11-27T06:14:10.453Z,102647.41
2022-11-27T06:16:38.823Z,102644.84
2022-11-27T06:19:09.329Z,102637.03
2022-11-27T06:21:37.413Z,102640.53
2022-11-27T06:24:05.723Z,102642.31
2022-11-27T06:26:34.580Z,102630.19
2022-11-27T06:29:03.099Z,102633.66
2022-11-27T06:31:33.451Z,102620.63
2022-11-27T06:34:02.462Z,102614.59
2022-11-27T06:36:33.560Z,102603.28
2022-11-27T06:39:02.131Z,102611.19
2022-11-27T06:41:30.555Z,102611.25
2022-11-27T06:44:00.695Z,102612.19
2022-11-27T06:46:29.954Z,102597.47
2022-11-27T06:48:59.145Z,102599.28
2022-11-27T06:51:28.597Z,102604.50
2022-11-27T06:53:58.569Z,102598.47
2022-11-27T06:56:28.748Z,102609.81
2022-11-27T06:58:58.143Z,102623.78
2022-11-27T07:01:28.009Z,102616.88
2022-11-27T07:03:57.252Z,102618.63
2022-11-27T07:06:26.965Z,102603.91
2022-11-27T07:08:55.302Z,102610.03
2022-11-27T07:11:31.935Z,102594.44
2022-11-27T07:14:01.296Z,102589.28
2022-11-27T07:16:31.821Z,102596.31
2022-11-27T07:19:01.681Z,102592.84
2022-11-27T07:21:31.400Z,102589.44
2022-11-27T07:23:59.573Z,102586.00
2022-11-27T07:26:30.813Z,102569.53
2022-11-27T07:28:59.112Z,102577.34
2022-11-27T07:31:30.260Z,102575.63
2022-11-27T07:33:58.897Z,102549.56
2022-11-27T07:36:28.945Z,102539.22
2022-11-27T07:38:58.094Z,102545.31
2022-11-27T07:41:32.163Z,102542.75
2022-11-27T07:44:03.883Z,102524.53
2022-11-27T07:46:31.871Z,102513.28
2022-11-27T07:49:00.791Z,102520.28
2022-11-27T07:51:29.153Z,102528.16
2022-11-27T07:53:57.267Z,102534.31
2022-11-27T07:56:25.265Z,102535.22
2022-11-27T07:58:53.358Z,102544.81
2022-11-27T08:01:22.992Z,102550.03
2022-11-27T08:03:51.366Z,102544.75
2022-11-27T08:06:21.827Z,102547.31
2022-11-27T08:08:50.240Z,102541.16
2022-11-27T08:11:20.637Z,102535.00
2022-11-27T08:13:49.335Z,102527.16
2022-11-27T08:16:18.092Z,102524.50
2022-11-27T08:18:47.721Z,102534.06
2022-11-27T08:21:23.398Z,102537.47
2022-11-27T08:23:53.088Z,102542.56
2022-11-27T08:26:22.175Z,102549.50
2022-11-27T08:28:53.357Z,102539.00
2022-11-27T08:31:21.943Z,102533.75
2022-11-27T08:33:51.709Z,102538.16
2022-11-27T08:36:19.898Z,102544.31
2022-11-27T08:38:48.190Z,102559.97
2022-11-27T08:41:16.360Z,102559.16
2022-11-27T08:43:44.458Z,102554.75
2022-11-27T08:46:12.953Z,102560.78
2022-11-27T08:48:42.003Z,102568.59
2022-11-27T08:51:13.674Z,102567.66
2022-11-27T08:53:44.520Z,102563.25
2022-11-27T08:56:16.775Z,102566.63
2022-11-27T08:58:44.795Z,102548.34
2022-11-27T09:01:15.965Z,102543.94
2022-11-27T09:03:44.180Z,102562.19
2022-11-27T09:06:16.937Z,102569.97
2022-11-27T09:08:45.846Z,102566.47
2022-11-27T09:11:15.017Z,102570.75
2022-11-27T09:13:43.841Z,102573.34
2022-11-27T09:16:13.713Z,102580.19
2022-11-27T09:18:41.900Z,102578.41
2022-11-27T09:21:12.040Z,102579.25
2022-11-27T09:23:42.159Z,102590.56
2022-11-27T09:26:11.832Z,102587.97
2022-11-27T09:28:40.957Z,102582.75
2022-11-27T09:31:11.634Z,102583.63
2022-11-27T09:33:41.350Z,102594.94
2022-11-27T09:36:12.150Z,102590.56
2022-11-27T09:38:42.560Z,102602.75
2022-11-27T09:41:28.175Z,102612.25
2022-11-27T09:44:00.531Z,102610.47
2022-11-27T09:46:38.368Z,102613.09
2022-11-27T09:49:13.675Z,102612.19
2022-11-27T09:51:45.393Z,102618.22
2022-11-27T09:54:23.267Z,102625.16
2022-11-27T09:56:54.942Z,102619.03
2022-11-27T09:59:27.035Z,102625.97
2022-11-27T10:01:55.328Z,102632.00
2022-11-27T10:04:23.378Z,102623.22
2022-11-27T10:07:06.507Z,102621.41
2022-11-27T10:09:48.536Z,102624.00
2022-11-27T10:12:24.134Z,102634.41
2022-11-27T10:15:04.813Z,102640.44
2022-11-27T10:17:37.445Z,102636.88
2022-11-27T10:20:16.809Z,102647.25
2022-11-27T10:22:55.347Z,102649.81
2022-11-27T10:25:30.889Z,102644.44
2022-11-27T10:28:07.263Z,102648.75
2022-11-27T10:30:40.756Z,102641.63
2022-11-27T10:33:18.284Z,102648.53
2022-11-27T10:35:49.091Z,102652.81
2022-11-27T10:38:21.483Z,102671.97
2022-11-27T10:40:56.822Z,102665.75
2022-11-27T10:43:26.614Z,102666.56
2022-11-27T10:45:57.826Z,102663.00
2022-11-27T10:48:27.884Z,102676.06
2022-11-27T10:50:56.732Z,102678.69
2022-11-27T10:53:30.351Z,102674.31
2022-11-27T10:56:19.725Z,102678.63
2022-11-27T10:58:56.128Z,102671.66
2022-11-27T11:01:25.845Z,102672.44
2022-11-27T11:04:24.272Z,102673.28
2022-11-27T11:06:55.659Z,102675.03
2022-11-27T11:09:26.020Z,102679.34
2022-11-27T11:11:55.914Z,102666.22
2022-11-27T11:14:25.510Z,102669.66
2022-11-27T11:16:55.331Z,102662.56
2022-11-27T11:19:25.779Z,102661.78
2022-11-27T11:21:54.322Z,102659.97
2022-11-27T11:24:27.757Z,102648.53
2022-11-27T11:27:00.590Z,102652.03
2022-11-27T11:29:33.923Z,102652.84
2022-11-27T11:32:09.941Z,102655.38
2022-11-27T11:34:44.113Z,102660.47
2022-11-27T11:37:23.565Z,102659.38
2022-11-27T11:39:57.726Z,102656.66
2022-11-27T11:42:39.212Z,102646.94
2022-11-27T11:45:17.922Z,102646.84
2022-11-27T11:47:47.270Z,102645.84
2022-11-27T11:50:18.489Z,102644.16
2022-11-27T11:52:56.015Z,102641.59
2022-11-27T11:55:29.214Z,102636.38
2022-11-27T11:58:14.412Z,102631.16
2022-11-27T12:01:11.907Z,102632.09
2022-11-27T12:03:57.882Z,102617.28
2022-11-27T12:06:38.036Z,102617.19
2022-11-27T12:09:26.314Z,102613.63
2022-11-27T12:12:05.507Z,102611.81
2022-11-27T12:14:44.813Z,102597.84
2022-11-27T12:17:30.091Z,102595.25
2022-11-27T12:20:14.872Z,102596.97
2022-11-27T12:23:18.783Z,102600.31
2022-11-27T12:25:56.251Z,102594.22
2022-11-27T12:28:39.885Z,102594.22
2022-11-27T12:31:18.284Z,102588.88
2022-11-27T12:34:02.148Z,102584.44
2022-11-27T12:36:59.035Z,102597.47
2022-11-27T12:39:34.353Z,102599.13
2022-11-27T12:42:21.593Z,102589.44
2022-11-27T12:44:58.067Z,102587.63
2022-11-27T12:47:38.666Z,102582.28
2022-11-27T12:50:15.983Z,102570.91
2022-11-27T12:52:47.169Z,102579.66
2022-11-27T12:55:20.764Z,102572.69
2022-11-27T12:57:55.281Z,102562.22
2022-11-27T13:00:26.328Z,102557.94
2022-11-27T13:03:04.278Z,102555.31
2022-11-27T13:05:36.679Z,102554.47
2022-11-27T13:08:11.682Z,102551.84
2022-11-27T13:10:43.021Z,102546.59
2022-11-27T13:13:16.095Z,102551.84
2022-11-27T13:15:48.595Z,102550.16
2022-11-27T13:18:23.053Z,102556.28
2022-11-27T13:20:53.051Z,102545.91
2022-11-27T13:23:21.873Z,102550.34
2022-11-27T13:25:55.404Z,102553.06
2022-11-27T13:28:31.950Z,102542.66
2022-11-27T13:31:01.663Z,102534.88
2022-11-27T13:33:39.403Z,102543.63
2022-11-27T13:36:19.029Z,102535.84
2022-11-27T13:38:52.912Z,102522.75
2022-11-27T13:41:31.535Z,102526.25
2022-11-27T13:44:00.237Z,102532.38
2022-11-27T13:46:31.408Z,102528.97
2022-11-27T13:49:03.820Z,102535.94
2022-11-27T13:51:34.403Z,102520.34
2022-11-27T13:54:10.939Z,102503.84
2022-11-27T13:56:39.669Z,102498.66
2022-11-27T13:59:15.786Z,102509.13
2022-11-27T14:01:55.479Z,102507.41
2022-11-27T14:04:25.237Z,102493.47
2022-11-27T14:06:58.677Z,102496.94
2022-11-27T14:09:39.410Z,102501.41
2022-11-27T14:12:34.501Z,102497.97
2022-11-27T14:15:07.856Z,102499.75
2022-11-27T14:17:39.227Z,102490.19
2022-11-27T14:20:25.166Z,102496.31
2022-11-27T14:23:11.068Z,102492.91
2022-11-27T14:25:40.480Z,102489.50
2022-11-27T14:28:16.134Z,102477.31
2022-11-27T14:30:50.612Z,102472.97
2022-11-27T14:33:20.483Z,102467.72
2022-11-27T14:35:55.539Z,102470.41
2022-11-27T14:38:24.433Z,102468.69
2022-11-27T14:40:55.027Z,102465.25
2022-11-27T14:46:20.650Z,102469.81
2022-11-27T14:48:51.248Z,102471.69
2022-11-27T14:51:23.489Z,102465.72
2022-11-27T14:53:55.659Z,102470.19
2022-11-27T14:56:35.988Z,102464.22
2022-11-27T14:59:06.753Z,102463.41
2022-11-27T15:01:36.909Z,102455.66
2022-11-27T15:04:06.738Z,102455.69
2022-11-27T15:06:40.392Z,102453.16
2022-11-27T15:09:31.402Z,102464.56
2022-11-27T15:12:05.026Z,102460.28
2022-11-27T15:14:33.516Z,102465.56
2022-11-27T15:17:01.665Z,102464.66
2022-11-27T15:19:33.243Z,102456.72
2022-11-27T15:22:03.374Z,102453.97
2022-11-27T15:24:34.300Z,102443.44
2022-11-27T15:27:17.756Z,102427.72
2022-11-27T15:30:02.536Z,102426.81
2022-11-27T15:32:51.316Z,102416.41
2022-11-27T15:35:25.465Z,102417.38
2022-11-27T15:37:57.134Z,102409.69
2022-11-27T15:40:31.125Z,102413.31
2022-11-27T15:42:59.312Z,102402.09
2022-11-27T15:45:31.150Z,102399.59
2022-11-27T15:48:01.402Z,102402.31
2022-11-27T15:50:30.621Z,102405.88
2022-11-27T15:53:01.155Z,102394.66
2022-11-27T15:55:29.458Z,102398.22
2022-11-27T15:57:57.926Z,102394.88
2022-11-27T16:00:26.899Z,102394.13
2022-11-27T16:02:55.085Z,102396.00
2022-11-27T16:05:23.342Z,102394.41
2022-11-27T16:07:55.193Z,102391.09
2022-11-27T16:10:25.059Z,102380.88
2022-11-27T16:12:55.432Z,102376.78
2022-11-27T16:15:25.784Z,102375.22
2022-11-27T16:17:58.101Z,102375.47
2022-11-27T16:20:26.871Z,102378.28
2022-11-27T16:22:55.352Z,102373.28
2022-11-27T16:25:25.492Z,102357.75
2022-11-27T16:27:58.018Z,102355.38
2022-11-27T16:30:29.030Z,102351.19
2022-11-27T16:32:57.176Z,102350.50
2022-11-27T16:35:26.496Z,102340.22
2022-11-27T16:37:54.543Z,102342.06
2022-11-27T16:40:22.742Z,102329.16
2022-11-27T16:42:52.360Z,102324.03
2022-11-27T16:45:20.577Z,102313.72
2022-11-27T16:47:48.780Z,102307.72
2022-11-27T16:50:17.157Z,102306.91
2022-11-27T16:52:47.075Z,102305.19
2022-11-27T16:55:19.842Z,102295.75
2022-11-27T16:57:48.387Z,102295.88
2022-11-27T17:00:18.978Z,102295.97
2022-11-27T17:02:47.252Z,102289.13
2022-11-27T17:05:15.502Z,102290.88
2022-11-27T17:07:43.681Z,102276.19
2022-11-27T17:10:12.189Z,102276.28
2022-11-27T17:12:40.556Z,102267.63
2022-11-27T17:15:10.213Z,102274.63
2022-11-27T17:17:41.403Z,102273.78
2022-11-27T17:20:10.248Z,102266.88
2022-11-27T17:22:38.311Z,102261.69
2022-11-27T17:25:06.753Z,102266.09
2022-11-27T17:27:35.258Z,102263.59
2022-11-27T17:30:03.387Z,102262.75
2022-11-27T17:32:31.438Z,102259.25
2022-11-27T17:35:00.843Z,102258.41
2022-11-27T17:37:28.835Z,102254.06
2022-11-27T17:39:56.806Z,102242.81
2022-11-27T17:42:24.849Z,102243.69
2022-11-27T17:44:52.782Z,102232.44
2022-11-27T17:47:20.706Z,102231.63
2022-11-27T17:49:48.728Z,102228.19
2022-11-27T17:52:18.177Z,102229.09
2022-11-27T17:55:00.705Z,102225.63
2022-11-27T18:01:12.074Z,102221.41
2022-11-27T18:03:40.891Z,102207.59
2022-11-27T18:06:09.639Z,102213.72
2022-11-27T18:08:40.654Z,102205.09
2022-11-27T18:11:09.489Z,102200.78
2022-11-27T18:13:37.730Z,102206.91
2022-11-27T18:16:08.362Z,102209.53
2022-11-27T18:18:36.930Z,102203.44
2022-11-27T18:21:08.744Z,102193.97
2022-11-27T18:23:54.091Z,102197.47
2022-11-27T18:26:45.323Z,102195.75
2022-11-27T18:29:16.760Z,102191.44
2022-11-27T18:31:48.067Z,102193.19
2022-11-27T18:34:16.180Z,102189.69
2022-11-27T18:36:45.214Z,102187.09
2022-11-27T18:39:17.379Z,102181.00
2022-11-27T18:41:45.386Z,102175.75
2022-11-27T18:44:13.555Z,102173.13
2022-11-27T18:46:41.649Z,102185.16
2022-11-27T18:49:09.752Z,102184.22
2022-11-27T18:51:37.969Z,102192.75
2022-11-27T18:54:06.538Z,102189.09
2022-11-27T18:56:37.271Z,102186.38
2022-11-27T18:59:07.274Z,102187.13
2022-11-27T19:01:41.911Z,102187.84
2022-11-27T19:04:10.932Z,102185.16
2022-11-27T19:06:42.312Z,102191.09
2022-11-27T19:09:11.345Z,102194.53
2022-11-27T19:11:41.298Z,102195.31
2022-11-27T19:14:09.738Z,102200.44
2022-11-27T19:16:43.937Z,102194.22
2022-11-27T19:19:52.145Z,102177.66
2022-11-27T19:22:01.819Z,102182.81
2022-11-27T19:24:29.880Z,102186.28
2022-11-27T19:26:59.387Z,102189.78
2022-11-27T19:29:27.567Z,102187.22
2022-11-27T19:32:01.159Z,102176.81
2022-11-27T19:34:29.580Z,102176.09
2022-11-27T19:36:58.488Z,102188.44
2022-11-27T19:39:27.355Z,102188.56
2022-11-27T19:41:57.841Z,102190.41
2022-11-27T19:44:29.740Z,102191.31
2022-11-27T19:46:57.715Z,102199.97
2022-11-27T19:49:26.170Z,102198.19
2022-11-27T19:51:54.145Z,102179.97
2022-11-27T19:54:22.165Z,102179.97
2022-11-27T19:56:50.372Z,102176.63
2022-11-27T19:59:22.755Z,102178.56
2022-11-27T20:01:55.037Z,102173.53
2022-11-27T20:04:23.211Z,102170.19
2022-11-27T20:06:53.313Z,102172.94
2022-11-27T20:09:21.541Z,102182.63
2022-11-27T20:11:49.755Z,102185.38
2022-11-27T20:14:19.532Z,102174.19
2022-11-27T20:16:47.689Z,102175.19
2022-11-27T20:19:17.253Z,102170.03
2022-11-27T20:21:45.772Z,102169.31
2022-11-27T20:24:14.272Z,102163.28
2022-11-27T20:26:43.303Z,102153.88
2022-11-27T20:29:12.027Z,102152.25
2022-11-27T20:31:44.651Z,102138.44
2022-11-27T20:34:18.556Z,102140.25
2022-11-27T20:36:46.555Z,102138.63
2022-11-27T20:39:20.607Z,102136.09
2022-11-27T20:41:50.257Z,102130.97
2022-11-27T20:44:18.408Z,102137.97
2022-11-27T20:46:46.582Z,102131.91
2022-11-27T20:49:14.574Z,102130.19
2022-11-27T20:51:44.439Z,102118.13
2022-11-27T20:54:12.898Z,102112.06
2022-11-27T20:56:43.285Z,102104.31
2022-11-27T20:59:12.595Z,102102.66
2022-11-27T21:01:42.249Z,102104.38
2022-11-27T21:04:18.276Z,102100.09
2022-11-27T21:06:47.771Z,102089.75
2022-11-27T21:09:15.852Z,102089.75
2022-11-27T21:11:44.967Z,102092.41
2022-11-27T21:14:14.988Z,102082.00
2022-11-27T21:16:44.981Z,102077.75
2022-11-27T21:19:16.299Z,102075.16
2022-11-27T21:21:44.443Z,102070.00
2022-11-27T21:24:14.446Z,102066.53
2022-11-27T21:26:43.204Z,102072.63
2022-11-27T21:29:12.317Z,102059.66
2022-11-27T21:31:46.122Z,102053.59
2022-11-27T21:34:17.528Z,102048.47
2022-11-27T21:36:45.660Z,102051.06
2022-11-27T21:39:20.519Z,102043.25
2022-11-27T21:41:49.560Z,102033.69
2022-11-27T21:44:20.047Z,102038.88
2022-11-27T21:46:48.601Z,102044.06
2022-11-27T21:49:18.627Z,102032.78
2022-11-27T21:51:47.213Z,102030.19
2022-11-27T21:54:17.723Z,102030.22
2022-11-27T21:56:45.870Z,102025.06
2022-11-27T21:59:16.467Z,102031.94
2022-11-27T22:01:46.411Z,102030.28
2022-11-27T22:04:14.425Z,102022.44
2022-11-27T22:06:45.150Z,102012.97
2022-11-27T22:09:15.803Z,102016.41
2022-11-27T22:11:47.124Z,102017.19
2022-11-27T22:14:16.643Z,102020.56
2022-11-27T22:16:46.648Z,102009.16
2022-11-27T22:19:15.457Z,102010.00
2022-11-27T22:21:43.983Z,101999.66
2022-11-27T22:24:16.812Z,102004.06
2022-11-27T22:26:48.534Z,102005.84
2022-11-27T22:29:16.946Z,102012.81
2022-11-27T22:31:44.989Z,102009.38
2022-11-27T22:34:12.951Z,102003.34
2022-11-27T22:36:44.178Z,102009.47
2022-11-27T22:39:12.189Z,102008.66
2022-11-27T22:41:41.733Z,102009.53
2022-11-27T22:44:14.870Z,102008.78
2022-11-27T22:46:43.491Z,102014.78
2022-11-27T22:49:17.488Z,102011.19
2022-11-27T22:51:46.424Z,102011.13
2022-11-27T22:54:17.178Z,102012.00
2022-11-27T22:56:46.743Z,102011.13
2022-11-27T22:59:34.154Z,102004.28
2022-11-27T23:02:03.143Z,102005.19
2022-11-27T23:04:31.754Z,102014.78
2022-11-27T23:06:59.951Z,102008.78
2022-11-27T23:09:28.335Z,101999.38
2022-11-27T23:11:57.015Z,102001.13
2022-11-27T23:14:27.324Z,102003.78
2022-11-27T23:16:55.402Z,101989.97
2022-11-27T23:19:23.462Z,101984.81
2022-11-27T23:21:51.412Z,101986.63
2022-11-27T23:24:20.065Z,101990.94
2022-11-27T23:26:48.397Z,101982.31
2022-11-27T23:29:16.430Z,101984.91
2022-11-27T23:31:45.998Z,101981.50
2022-11-27T23:34:16.204Z,101972.81
2022-11-27T23:36:44.684Z,101973.69
2022-11-27T23:39:14.763Z,101963.31
2022-11-27T23:41:43.574Z,101957.25
2022-11-27T23:44:12.118Z,101956.41
2022-11-27T23:46:40.673Z,101953.84
2022-11-27T23:49:10.034Z,101943.44
2022-11-27T23:51:38.123Z,101948.63
2022-11-27T23:54:09.704Z,101954.63
2022-11-27T23:56:39.120Z,101938.13
2022-11-27T23:59:07.691Z,101950.28
